Time;durP1;ratioP1;P1;durP2;ratioP2;P2;SDS_P1;SDS_P2;PMS_P1;PMS_P2;Temp;Humidity;BMP_temperature;BMP_pressure;BME280_temperature;BME280_humidity;BME280_pressure;Samples;Min_cycle;Max_cycle;Signal;HPM_P1;HPM_P2
2023/04/06 00:00:33;;;;;;;10.37;5.90;;;;;;;2.49;66.77;101741.34;4935689;28;20027;-79
2023/04/06 00:02:58;;;;;;;10.87;6.23;;;;;;;2.46;67.00;101742.16;4939900;28;20102;-79
2023/04/06 00:05:24;;;;;;;10.43;6.03;;;;;;;2.43;67.04;101736.94;4946571;28;20399;-80
2023/04/06 00:07:50;;;;;;;11.07;6.00;;;;;;;2.43;67.22;101736.94;4949975;28;20067;-80
2023/04/06 00:10:16;;;;;;;11.53;5.63;;;;;;;2.37;67.52;101740.25;4940722;28;20059;-79
2023/04/06 00:12:42;;;;;;;9.60;5.70;;;;;;;2.37;68.16;101744.53;4945143;28;20089;-79
2023/04/06 00:15:07;;;;;;;10.77;5.63;;;;;;;2.36;67.79;101742.81;4957132;28;20043;-81
2023/04/06 00:17:34;;;;;;;9.50;6.00;;;;;;;2.34;68.11;101736.75;4965793;28;20031;-80
2023/04/06 00:20:00;;;;;;;9.97;5.93;;;;;;;2.33;68.31;101732.44;4949689;28;20035;-79
2023/04/06 00:22:25;;;;;;;9.67;5.97;;;;;;;2.32;68.25;101733.28;4960966;28;20039;-81
2023/04/06 00:24:50;;;;;;;11.10;6.20;;;;;;;2.29;67.99;101728.97;4958570;28;20244;-79
2023/04/06 00:27:16;;;;;;;10.97;6.20;;;;;;;2.27;68.11;101726.34;4948641;28;20050;-80
2023/04/06 00:29:41;;;;;;;11.27;6.30;;;;;;;2.27;67.68;101730.63;4953666;28;20038;-82
2023/04/06 00:32:06;;;;;;;10.30;5.73;;;;;;;2.24;67.58;101731.41;4955604;28;20027;-80
2023/04/06 00:34:32;;;;;;;10.83;6.47;;;;;;;2.20;68.39;101723.59;4943620;28;20098;-79
2023/04/06 00:36:57;;;;;;;11.30;6.13;;;;;;;2.20;66.76;101719.34;4961075;28;20031;-79
2023/04/06 00:39:22;;;;;;;11.33;6.43;;;;;;;2.15;67.01;101718.34;4959814;28;20073;-79
2023/04/06 00:41:51;;;;;;;12.23;7.00;;;;;;;2.17;67.15;101716.69;4952741;28;20023;-79
2023/04/06 00:44:16;;;;;;;11.53;6.53;;;;;;;2.17;67.16;101713.25;4950299;28;20480;-81
2023/04/06 00:46:42;;;;;;;10.67;6.63;;;;;;;2.15;66.61;101707.22;4963246;28;20054;-81
2023/04/06 00:49:07;;;;;;;11.97;7.23;;;;;;;2.12;67.26;101708.00;4957203;28;20560;-81
2023/04/06 00:51:32;;;;;;;10.90;6.57;;;;;;;2.12;66.92;101700.31;4969860;28;20030;-81
2023/04/06 00:53:58;;;;;;;13.33;7.30;;;;;;;2.08;67.77;101708.75;4946268;28;20040;-82
2023/04/06 00:56:23;;;;;;;11.17;6.30;;;;;;;2.06;66.68;101701.03;4957772;28;20038;-78
2023/04/06 00:58:49;;;;;;;12.60;6.63;;;;;;;2.04;67.97;101696.72;4960380;28;20102;-78
2023/04/06 01:01:15;;;;;;;11.47;6.20;;;;;;;2.00;67.89;101694.91;4958624;28;20117;-78
2023/04/06 01:03:42;;;;;;;10.30;5.57;;;;;;;1.95;68.63;101698.22;4959701;28;20065;-78
2023/04/06 01:06:07;;;;;;;10.17;5.67;;;;;;;1.92;68.82;101697.28;4959087;28;20030;-78
2023/04/06 01:08:32;;;;;;;10.03;5.93;;;;;;;1.90;68.43;101699.81;4957143;28;20042;-78
2023/04/06 01:11:00;;;;;;;9.77;5.47;;;;;;;1.86;68.71;101689.44;4960444;28;20434;-78
2023/04/06 01:13:26;;;;;;;11.40;5.80;;;;;;;1.84;69.13;101688.53;4948189;28;20031;-78
2023/04/06 01:15:51;;;;;;;10.13;5.67;;;;;;;1.84;67.92;101680.81;4954141;28;20078;-78
2023/04/06 01:18:17;;;;;;;11.83;6.30;;;;;;;1.82;67.38;101680.81;4958312;28;20034;-78
2023/04/06 01:20:42;;;;;;;11.27;6.07;;;;;;;1.83;67.87;101674.84;4946964;28;20498;-78
2023/04/06 01:23:07;;;;;;;11.33;5.87;;;;;;;1.82;68.96;101676.53;4947998;28;20110;-78
2023/04/06 01:25:32;;;;;;;12.00;6.17;;;;;;;1.85;68.19;101675.75;4953232;28;20034;-78
2023/04/06 01:27:58;;;;;;;12.00;6.47;;;;;;;1.86;68.18;101671.47;4949298;28;20484;-78
2023/04/06 01:30:23;;;;;;;10.17;6.43;;;;;;;1.88;68.70;101669.81;4947741;28;20042;-78
2023/04/06 01:32:48;;;;;;;10.00;6.10;;;;;;;1.89;68.59;101661.28;4947725;28;20408;-78
2023/04/06 01:35:14;;;;;;;13.03;6.10;;;;;;;1.89;68.85;101661.28;4958741;28;20023;-78
2023/04/06 01:37:39;;;;;;;10.10;6.10;;;;;;;1.88;68.95;101659.56;4953703;28;20046;-78
2023/04/06 01:40:06;;;;;;;11.23;6.37;;;;;;;1.88;67.88;101655.28;4966041;28;20485;-78
2023/04/06 01:42:31;;;;;;;12.47;6.90;;;;;;;1.89;67.46;101653.59;4961022;28;20078;-78
2023/04/06 01:44:56;;;;;;;13.97;6.67;;;;;;;1.88;67.98;101660.41;4970702;28;20077;-78
2023/04/06 01:47:22;;;;;;;12.77;6.77;;;;;;;1.87;67.74;101657.81;4957437;28;20539;-78
2023/04/06 01:49:47;;;;;;;13.07;6.70;;;;;;;1.88;67.49;101650.13;4959616;28;20685;-78
2023/04/06 01:52:12;;;;;;;10.83;6.73;;;;;;;1.88;68.04;101647.56;4959093;28;20035;-78
2023/04/06 01:54:37;;;;;;;12.57;6.33;;;;;;;1.87;69.10;101647.56;4958254;28;20110;-78
2023/04/06 01:57:03;;;;;;;11.13;6.17;;;;;;;1.86;69.51;101639.00;4961671;28;20490;-78
2023/04/06 01:59:28;;;;;;;10.57;6.87;;;;;;;1.89;68.88;101638.19;4956537;28;20030;-78
2023/04/06 02:01:53;;;;;;;14.47;7.07;;;;;;;1.92;67.59;101633.13;4954761;28;20027;-78
2023/04/06 02:04:19;;;;;;;12.73;6.37;;;;;;;1.93;67.55;101633.16;4956040;28;20513;-78
2023/04/06 02:06:44;;;;;;;14.07;7.13;;;;;;;1.97;68.19;101627.28;4954073;28;20241;-78
2023/04/06 02:09:09;;;;;;;13.87;7.03;;;;;;;1.99;68.29;101618.75;4957441;28;20497;-78
2023/04/06 02:11:35;;;;;;;12.53;6.80;;;;;;;2.03;68.56;101618.84;4954454;28;20403;-78
2023/04/06 02:14:00;;;;;;;13.47;7.60;;;;;;;2.03;67.71;101617.97;4954838;28;20045;-78
2023/04/06 02:16:26;;;;;;;11.93;6.47;;;;;;;2.05;67.97;101617.19;4960221;28;20031;-78
2023/04/06 02:18:51;;;;;;;12.63;7.00;;;;;;;2.09;67.71;101612.97;4948439;28;20027;-78
2023/04/06 02:21:20;;;;;;;12.77;7.30;;;;;;;2.14;67.62;101616.50;4948824;28;20424;-78
2023/04/06 02:23:49;;;;;;;15.30;7.43;;;;;;;2.16;68.42;101604.56;4953119;28;20517;-78
2023/04/06 02:26:15;;;;;;;12.63;6.53;;;;;;;2.16;69.30;101607.16;4950834;28;20090;-78
2023/04/06 02:28:40;;;;;;;12.03;6.97;;;;;;;2.18;68.32;101602.03;4952324;28;20485;-78
2023/04/06 02:31:06;;;;;;;12.63;6.70;;;;;;;2.19;67.97;101603.75;4956173;28;20035;-77
2023/04/06 02:33:31;;;;;;;14.47;7.87;;;;;;;2.22;68.44;101607.25;4942318;28;20027;-78
2023/04/06 02:35:56;;;;;;;11.97;6.93;;;;;;;2.25;67.73;101597.06;4954352;28;20023;-78
2023/04/06 02:38:21;;;;;;;12.93;6.47;;;;;;;2.30;67.67;101601.44;4950942;28;20031;-78
2023/04/06 02:40:47;;;;;;;14.00;7.07;;;;;;;2.34;67.60;101600.66;4955561;28;20027;-78
2023/04/06 02:43:12;;;;;;;13.90;7.30;;;;;;;2.36;67.29;101593.88;4951694;28;20400;-78
2023/04/06 02:45:37;;;;;;;11.57;6.67;;;;;;;2.39;67.59;101597.34;4951829;28;20042;-78
2023/04/06 02:48:03;;;;;;;14.77;7.17;;;;;;;2.42;67.50;101593.97;4953345;28;20083;-78
2023/04/06 02:50:28;;;;;;;13.83;7.67;;;;;;;2.43;67.73;101588.88;4956862;28;20729;-78
2023/04/06 02:52:53;;;;;;;15.20;7.83;;;;;;;2.46;67.69;101585.50;4948475;28;20113;-78
2023/04/06 02:55:19;;;;;;;11.83;7.03;;;;;;;2.48;67.58;101586.41;4950367;28;20027;-78
2023/04/06 02:57:45;;;;;;;12.77;7.43;;;;;;;2.50;67.89;101583.84;4950493;28;20029;-78
2023/04/06 03:00:11;;;;;;;13.77;7.80;;;;;;;2.51;67.90;101576.19;4951916;28;20035;-78
2023/04/06 03:02:36;;;;;;;14.13;7.67;;;;;;;2.53;67.91;101574.50;4947738;28;20479;-78
2023/04/06 03:05:03;;;;;;;14.53;7.70;;;;;;;2.57;67.23;101570.28;4951708;28;20039;-78
2023/04/06 03:07:28;;;;;;;15.40;7.90;;;;;;;2.61;66.46;101576.34;4937191;28;20042;-78
2023/04/06 03:09:53;;;;;;;15.50;8.87;;;;;;;2.66;66.38;101575.59;4966549;28;20525;-78
2023/04/06 03:12:19;;;;;;;14.60;7.80;;;;;;;2.73;67.23;101576.59;4954082;28;20386;-78
2023/04/06 03:14:44;;;;;;;12.70;7.83;;;;;;;2.79;67.40;101568.97;4959265;28;20028;-78
2023/04/06 03:17:10;;;;;;;15.13;8.23;;;;;;;2.82;67.16;101569.06;4951754;28;20414;-78
2023/04/06 03:19:35;;;;;;;15.47;8.07;;;;;;;2.85;66.97;101574.25;4944294;28;20364;-78
2023/04/06 03:22:00;;;;;;;16.43;8.57;;;;;;;2.88;66.88;101566.59;4951812;28;20497;-78
2023/04/06 03:24:26;;;;;;;15.37;8.33;;;;;;;2.92;66.88;101566.63;4954265;28;20085;-78
2023/04/06 03:26:51;;;;;;;16.13;8.87;;;;;;;2.93;67.06;101561.53;4949874;28;20253;-78
2023/04/06 03:29:16;;;;;;;14.07;8.60;;;;;;;2.97;67.19;101559.88;4949069;28;20097;-78
2023/04/06 03:31:42;;;;;;;16.03;8.73;;;;;;;2.98;66.84;101561.59;4959467;28;20027;-78
2023/04/06 03:34:07;;;;;;;13.93;8.43;;;;;;;2.99;66.86;101563.34;4950428;28;20053;-78
2023/04/06 03:36:34;;;;;;;17.13;9.23;;;;;;;3.00;67.19;101563.34;4952838;28;20110;-78
2023/04/06 03:38:59;;;;;;;15.93;8.77;;;;;;;3.03;67.43;101560.00;4961834;28;20035;-78
2023/04/06 03:41:25;;;;;;;16.43;9.50;;;;;;;3.07;67.11;101556.63;4956625;28;20031;-78
2023/04/06 03:43:50;;;;;;;15.13;8.83;;;;;;;3.08;67.15;101558.34;4951964;28;20042;-78
2023/04/06 03:46:15;;;;;;;15.93;8.60;;;;;;;3.09;67.40;101549.78;4954823;28;20030;-78
2023/04/06 03:48:41;;;;;;;16.33;9.57;;;;;;;3.09;67.17;101552.34;4947544;28;20031;-78
2023/04/06 03:51:06;;;;;;;16.00;9.27;;;;;;;3.11;66.79;101547.25;4950809;28;20031;-78
2023/04/06 03:53:31;;;;;;;16.83;9.23;;;;;;;3.14;67.25;101542.19;4957802;28;20053;-78
2023/04/06 03:55:56;;;;;;;15.43;9.03;;;;;;;3.16;67.11;101546.50;4948479;28;20043;-78
2023/04/06 03:58:22;;;;;;;16.00;8.83;;;;;;;3.17;67.23;101542.19;4946102;28;20058;-78
2023/04/06 04:00:47;;;;;;;16.20;9.00;;;;;;;3.15;67.13;101539.63;4948890;28;20081;-78
2023/04/06 04:03:15;;;;;;;15.50;9.20;;;;;;;3.14;66.90;101537.88;4950758;28;20098;-78
2023/04/06 04:05:43;;;;;;;16.27;9.03;;;;;;;3.16;67.13;101545.66;4952955;28;20035;-78
2023/04/06 04:08:08;;;;;;;15.30;8.90;;;;;;;3.13;66.93;101545.59;4950687;28;20026;-78
2023/04/06 04:10:33;;;;;;;17.67;9.53;;;;;;;3.11;67.05;101548.13;4946213;28;20038;-78
2023/04/06 04:12:58;;;;;;;16.13;9.17;;;;;;;3.09;67.66;101549.78;4946786;28;20059;-78
2023/04/06 04:15:24;;;;;;;18.90;10.17;;;;;;;3.08;67.28;101547.22;4943424;28;20712;-78
2023/04/06 04:17:50;;;;;;;18.40;10.10;;;;;;;3.07;67.65;101551.50;4942477;28;21459;-78
2023/04/06 04:20:16;;;;;;;18.87;9.97;;;;;;;3.06;66.93;101548.88;4950421;28;20050;-78
2023/04/06 04:22:41;;;;;;;17.13;9.97;;;;;;;3.06;67.32;101554.03;4958881;28;20031;-78
2023/04/06 04:25:07;;;;;;;17.40;9.57;;;;;;;3.07;67.13;101554.06;4947667;28;20023;-78
2023/04/06 04:27:32;;;;;;;16.57;10.10;;;;;;;3.06;67.49;101549.75;4951621;28;20483;-78
2023/04/06 04:29:58;;;;;;;18.17;9.97;;;;;;;3.07;67.30;101550.63;4947765;28;20387;-78
2023/04/06 04:32:27;;;;;;;16.73;9.60;;;;;;;3.08;67.57;101547.22;4949321;28;20052;-78
2023/04/06 04:34:52;;;;;;;16.63;9.83;;;;;;;3.08;67.75;101547.22;4938592;28;20027;-78
2023/04/06 04:37:17;;;;;;;16.17;9.60;;;;;;;3.06;67.82;101547.19;4947892;28;20106;-78
2023/04/06 04:39:43;;;;;;;16.67;10.03;;;;;;;3.06;67.63;101549.75;4948507;28;20050;-78
2023/04/06 04:42:08;;;;;;;17.10;9.70;;;;;;;3.07;67.67;101546.34;4951035;28;20414;-78
2023/04/06 04:44:33;;;;;;;17.03;10.13;;;;;;;3.07;67.64;101543.78;4954121;28;20030;-78
2023/04/06 04:46:59;;;;;;;17.30;9.83;;;;;;;3.09;67.53;101549.78;4949584;28;20054;-78
2023/04/06 04:49:24;;;;;;;16.83;9.67;;;;;;;3.09;67.63;101543.78;4950424;28;20027;-78
2023/04/06 04:51:52;;;;;;;17.03;9.77;;;;;;;3.08;67.85;101542.06;4951379;28;20058;-78
2023/04/06 04:54:17;;;;;;;18.60;10.17;;;;;;;3.07;67.94;101543.78;4946133;28;20089;-78
2023/04/06 04:56:42;;;;;;;19.20;9.97;;;;;;;3.06;68.07;101544.63;4955432;28;20118;-78
2023/04/06 04:59:08;;;;;;;16.87;9.73;;;;;;;3.04;67.97;101542.00;4959500;28;20501;-78
2023/04/06 05:01:33;;;;;;;15.87;9.40;;;;;;;3.05;68.02;101540.31;4953424;28;20042;-78
2023/04/06 05:03:58;;;;;;;16.23;9.97;;;;;;;3.04;68.04;101539.44;4959260;28;20089;-78
2023/04/06 05:06:23;;;;;;;16.77;10.10;;;;;;;3.04;68.25;101536.00;4962500;28;20034;-78
2023/04/06 05:08:49;;;;;;;17.43;10.07;;;;;;;3.03;67.93;101542.84;4945899;28;20031;-78
2023/04/06 05:11:14;;;;;;;18.17;10.90;;;;;;;3.03;68.28;101539.44;4951584;28;20463;-78
2023/04/06 05:13:39;;;;;;;20.07;11.07;;;;;;;3.04;68.57;101543.72;4944640;28;20427;-78
2023/04/06 05:16:05;;;;;;;17.50;10.27;;;;;;;3.04;68.60;101541.16;4955530;28;20031;-78
2023/04/06 05:18:30;;;;;;;17.83;10.53;;;;;;;3.04;69.16;101543.72;4949522;28;20035;-78
2023/04/06 05:20:56;;;;;;;18.13;9.93;;;;;;;3.05;68.22;101537.75;4950728;28;20035;-78
2023/04/06 05:23:21;;;;;;;17.47;9.57;;;;;;;3.05;68.48;101540.31;4949849;28;20031;-78
2023/04/06 05:25:47;;;;;;;18.40;10.60;;;;;;;3.08;68.44;101542.06;4950111;28;20095;-78
2023/04/06 05:28:14;;;;;;;17.33;10.37;;;;;;;3.10;68.26;101541.25;4946648;28;20118;-78
2023/04/06 05:30:39;;;;;;;17.73;10.27;;;;;;;3.13;68.30;101536.16;4948507;28;20438;-78
2023/04/06 05:33:05;;;;;;;17.40;10.07;;;;;;;3.13;68.16;101546.44;4941043;28;20031;-78
2023/04/06 05:35:30;;;;;;;18.90;9.73;;;;;;;3.18;68.25;101541.38;4949666;28;20479;-78
2023/04/06 05:37:55;;;;;;;17.73;9.60;;;;;;;3.19;68.03;101536.25;4948784;28;20031;-78
2023/04/06 05:40:20;;;;;;;16.60;9.80;;;;;;;3.24;68.06;101538.06;4952641;28;20550;-78
2023/04/06 05:42:46;;;;;;;17.87;10.33;;;;;;;3.26;68.00;101536.34;4956099;28;20081;-78
2023/04/06 05:45:16;;;;;;;19.47;10.03;;;;;;;3.28;68.18;101534.66;4954560;28;20023;-78
2023/04/06 05:47:43;;;;;;;17.67;10.27;;;;;;;3.30;68.29;101528.72;4951666;28;20032;-78
2023/04/06 05:50:08;;;;;;;16.73;9.57;;;;;;;3.33;68.22;101530.47;4962384;28;20023;-78
2023/04/06 05:52:34;;;;;;;20.47;10.37;;;;;;;3.36;67.64;101527.06;4957320;28;20053;-78
2023/04/06 05:54:59;;;;;;;17.53;10.27;;;;;;;3.39;67.78;101528.00;4950828;28;20054;-78
2023/04/06 05:57:24;;;;;;;19.13;10.50;;;;;;;3.42;68.10;101528.00;4952722;28;20027;-78
2023/04/06 05:59:49;;;;;;;18.73;10.63;;;;;;;3.45;68.38;101525.50;4952052;28;20044;-78
2023/04/06 06:02:15;;;;;;;16.97;10.73;;;;;;;3.50;68.71;101533.31;4948240;28;20081;-78
2023/04/06 06:04:40;;;;;;;18.77;10.27;;;;;;;3.55;69.11;101525.66;4935941;29;20039;-78
2023/04/06 06:07:05;;;;;;;18.70;10.17;;;;;;;3.61;69.80;101525.72;4939932;29;20542;-78
2023/04/06 06:09:31;;;;;;;16.60;10.03;;;;;;;3.65;69.58;101524.91;4937819;29;20035;-78
2023/04/06 06:11:56;;;;;;;17.90;9.77;;;;;;;3.70;68.47;101528.44;4943925;28;20046;-78
2023/04/06 06:14:21;;;;;;;19.37;10.63;;;;;;;3.73;68.57;101528.47;4936372;29;20118;-78
2023/04/06 06:16:47;;;;;;;19.63;10.40;;;;;;;3.78;69.14;101524.25;4938648;29;20494;-78
2023/04/06 06:19:12;;;;;;;18.83;9.70;;;;;;;3.84;69.04;101527.75;4940715;29;20031;-78
2023/04/06 06:21:37;;;;;;;17.97;9.73;;;;;;;3.90;69.38;101527.84;4943690;29;20054;-78
2023/04/06 06:24:03;;;;;;;17.27;9.67;;;;;;;3.97;68.72;101529.63;4929871;29;20106;-78
2023/04/06 06:26:28;;;;;;;17.07;10.03;;;;;;;4.02;68.92;101524.53;4934472;29;20066;-78
2023/04/06 06:28:53;;;;;;;18.25;9.70;;;;;;;4.08;69.34;101522.03;4947738;29;20067;-78
2023/04/06 06:31:22;;;;;;;16.70;9.53;;;;;;;4.15;69.00;101521.28;4925882;29;20247;-78
2023/04/06 06:33:50;;;;;;;18.80;10.95;;;;;;;4.21;68.94;101520.50;4931345;29;20043;-78
2023/04/06 06:36:19;;;;;;;15.80;10.13;;;;;;;4.27;68.32;101520.53;4922976;29;20039;-78
2023/04/06 06:38:44;;;;;;;16.38;9.82;;;;;;;4.33;68.59;101520.63;4926732;29;20070;-78
2023/04/06 06:41:10;;;;;;;18.33;10.67;;;;;;;4.39;69.29;101531.00;4940853;29;20162;-78
2023/04/06 06:43:35;;;;;;;18.58;10.73;;;;;;;4.42;68.75;101535.31;4944980;29;20027;-78
2023/04/06 06:46:01;;;;;;;20.97;10.37;;;;;;;4.44;68.15;101545.66;4943450;29;20030;-78
2023/04/06 06:48:26;;;;;;;18.42;10.45;;;;;;;4.48;67.77;101534.50;4944338;28;20274;-78
2023/04/06 06:50:51;;;;;;;18.25;10.43;;;;;;;4.49;68.01;101526.81;4941099;29;20040;-78
2023/04/06 06:53:17;;;;;;;17.60;10.15;;;;;;;4.53;67.29;101525.13;4943117;29;20035;-78
2023/04/06 06:55:44;;;;;;;17.02;10.18;;;;;;;4.57;68.30;101524.31;4943376;29;20039;-78
2023/04/06 06:58:09;;;;;;;17.90;10.38;;;;;;;4.62;68.28;101516.63;4941693;29;20046;-78
2023/04/06 07:00:35;;;;;;;19.55;10.50;;;;;;;4.68;67.44;101522.69;4940486;29;20035;-78
2023/04/06 07:03:00;;;;;;;19.33;10.77;;;;;;;4.74;67.77;101521.03;4943525;29;20047;-78
2023/04/06 07:05:26;;;;;;;17.52;10.15;;;;;;;4.78;67.63;101512.50;4951588;29;20024;-78
2023/04/06 07:07:52;;;;;;;16.92;9.93;;;;;;;4.83;67.24;101510.78;4944666;29;20035;-78
2023/04/06 07:10:17;;;;;;;18.33;10.38;;;;;;;4.88;66.99;101508.25;4949720;28;20091;-78
2023/04/06 07:12:42;;;;;;;18.52;10.68;;;;;;;4.92;67.15;101508.31;4941298;29;20053;-78
2023/04/06 07:15:08;;;;;;;17.88;10.65;;;;;;;4.97;66.50;101509.19;4942876;29;20050;-78
2023/04/06 07:17:33;;;;;;;17.40;10.13;;;;;;;5.01;66.90;101505.78;4946158;29;20039;-78
2023/04/06 07:19:58;;;;;;;18.98;10.25;;;;;;;5.05;66.03;101505.81;4947825;29;20147;-78
2023/04/06 07:22:24;;;;;;;18.48;10.40;;;;;;;5.08;66.33;101500.69;4942030;28;20027;-78
2023/04/06 07:24:49;;;;;;;18.50;10.63;;;;;;;5.11;66.02;101503.31;4952895;29;20358;-78
2023/04/06 07:27:16;;;;;;;16.70;10.32;;;;;;;5.18;66.50;101502.47;4951340;29;20082;-78
2023/04/06 07:29:41;;;;;;;17.90;10.18;;;;;;;5.23;66.17;101505.09;4949223;29;20090;-78
2023/04/06 07:32:08;;;;;;;17.60;9.77;;;;;;;5.28;66.26;101503.41;4951082;29;20471;-78
2023/04/06 07:34:33;;;;;;;18.98;10.95;;;;;;;5.31;64.71;101506.88;4952953;28;20058;-78
2023/04/06 07:37:00;;;;;;;20.85;10.38;;;;;;;5.35;66.05;101499.16;4948654;28;20027;-77
2023/04/06 07:39:26;;;;;;;17.40;9.73;;;;;;;5.40;66.41;101503.47;4950132;29;20035;-78
2023/04/06 07:41:52;;;;;;;19.00;10.32;;;;;;;5.44;64.40;101504.41;4952872;29;20093;-78
2023/04/06 07:44:17;;;;;;;18.90;10.23;;;;;;;5.50;65.30;101499.25;4947204;29;20423;-78
2023/04/06 07:46:42;;;;;;;18.25;10.40;;;;;;;5.54;63.97;101497.56;4940382;29;20035;-78
2023/04/06 07:49:07;;;;;;;16.33;9.90;;;;;;;5.58;64.82;101496.72;4940410;29;20031;-78
2023/04/06 07:51:36;;;;;;;17.42;10.35;;;;;;;5.64;65.25;101501.06;4944517;29;20491;-78
2023/04/06 07:54:01;;;;;;;16.38;10.10;;;;;;;5.69;64.73;101501.94;4946301;29;20490;-78
2023/04/06 07:56:26;;;;;;;16.60;9.80;;;;;;;5.76;62.81;101506.28;4935269;29;20032;-78
2023/04/06 07:58:52;;;;;;;17.88;10.30;;;;;;;5.81;64.40;101503.72;4941039;29;20122;-78
2023/04/06 08:01:17;;;;;;;17.75;9.73;;;;;;;5.87;63.95;101502.03;4934676;29;20133;-78
2023/04/06 08:03:42;;;;;;;17.98;10.32;;;;;;;5.93;62.17;101506.34;4931188;29;20547;-78
2023/04/06 08:06:07;;;;;;;19.25;9.93;;;;;;;5.98;63.48;101508.97;4927239;29;20035;-78
2023/04/06 08:08:33;;;;;;;17.40;9.55;;;;;;;6.01;63.48;101496.06;4933703;29;20035;-79
2023/04/06 08:10:58;;;;;;;17.92;9.98;;;;;;;6.07;62.60;101498.69;4928517;29;20031;-78
2023/04/06 08:13:23;;;;;;;17.63;9.90;;;;;;;6.13;61.55;101500.44;4926849;29;20034;-78
2023/04/06 08:15:49;;;;;;;17.10;9.85;;;;;;;6.16;64.14;101496.13;4928969;29;20107;-78
2023/04/06 08:18:14;;;;;;;16.67;8.95;;;;;;;6.25;63.71;101504.78;4929571;29;20047;-78
2023/04/06 08:20:40;;;;;;;16.25;9.35;;;;;;;6.31;63.17;101494.47;4927331;29;20038;-78
2023/04/06 08:23:06;;;;;;;16.50;9.60;;;;;;;6.36;62.60;101497.91;4926103;29;20111;-78
2023/04/06 08:25:33;;;;;;;15.52;9.25;;;;;;;6.41;62.49;101501.38;4928724;29;20039;-78
2023/04/06 08:27:58;;;;;;;16.58;9.35;;;;;;;6.46;61.84;101503.97;4929107;29;20027;-78
2023/04/06 08:30:24;;;;;;;18.83;10.10;;;;;;;6.48;61.81;101505.72;4930480;29;20440;-78
2023/04/06 08:32:49;;;;;;;16.80;9.65;;;;;;;6.51;62.41;101505.69;4930442;29;20066;-78
2023/04/06 08:35:15;;;;;;;19.00;9.80;;;;;;;6.57;62.36;101507.47;4933769;29;20042;-78
2023/04/06 08:37:40;;;;;;;16.90;9.38;;;;;;;6.62;62.61;101510.03;4934038;29;20054;-78
2023/04/06 08:40:06;;;;;;;18.00;9.57;;;;;;;6.66;60.97;101506.59;4934153;29;20390;-78
2023/04/06 08:42:33;;;;;;;18.25;10.32;;;;;;;6.66;61.56;101506.59;4934994;28;20043;-78
2023/04/06 08:44:59;;;;;;;16.95;9.65;;;;;;;6.70;60.37;101507.47;4933389;29;20024;-78
2023/04/06 08:47:24;;;;;;;17.55;10.48;;;;;;;6.73;60.64;101505.72;4935991;29;20034;-78
2023/04/06 08:49:51;;;;;;;15.55;9.25;;;;;;;6.74;60.85;101504.03;4936249;29;20031;-78
2023/04/06 08:52:18;;;;;;;18.00;9.95;;;;;;;6.79;61.34;101505.75;4934878;29;20040;-78
2023/04/06 08:54:44;;;;;;;18.25;10.25;;;;;;;6.85;60.85;101497.13;4934535;29;20506;-78
2023/04/06 08:57:10;;;;;;;19.85;10.48;;;;;;;6.90;61.12;101503.19;4934535;29;20106;-79
2023/04/06 08:59:36;;;;;;;17.65;9.90;;;;;;;6.95;60.46;101509.19;4934019;29;20027;-78
2023/04/06 09:02:05;;;;;;;18.13;9.77;;;;;;;6.98;60.54;101503.16;4932244;29;20481;-78
2023/04/06 09:04:31;;;;;;;16.85;9.65;;;;;;;7.00;60.00;101509.22;4950296;28;20054;-78
2023/04/06 09:06:57;;;;;;;17.92;10.20;;;;;;;7.04;60.23;101518.66;4954967;28;20023;-78
2023/04/06 09:09:24;;;;;;;17.83;9.88;;;;;;;7.11;61.00;101514.34;4954380;28;20439;-78
2023/04/06 09:11:51;;;;;;;16.55;9.30;;;;;;;7.17;60.36;101518.69;4954203;28;20023;-78
2023/04/06 09:14:17;;;;;;;18.48;9.95;;;;;;;7.22;60.27;101514.34;4961560;28;20023;-78
2023/04/06 09:16:45;;;;;;;16.77;10.02;;;;;;;7.29;59.70;101514.34;4954380;28;20078;-78
2023/04/06 09:19:11;;;;;;;19.83;9.98;;;;;;;7.36;60.78;101514.34;4956380;28;20034;-78
2023/04/06 09:21:38;;;;;;;18.70;10.23;;;;;;;7.41;60.02;101508.28;4951730;28;20391;-78
2023/04/06 09:24:03;;;;;;;17.02;9.48;;;;;;;7.49;59.69;101510.00;4947810;28;20031;-79
2023/04/06 09:26:29;;;;;;;16.95;9.75;;;;;;;7.55;59.80;101512.56;4950638;28;20046;-80
2023/04/06 09:29:00;;;;;;;16.77;9.52;;;;;;;7.60;59.96;101505.66;4945653;28;20286;-80
2023/04/06 09:31:32;;;;;;;17.08;9.63;;;;;;;7.70;60.71;101509.94;4939302;28;20039;-80
2023/04/06 09:34:00;;;;;;;16.40;9.18;;;;;;;7.80;59.35;101507.34;4947486;28;20039;-80
2023/04/06 09:36:33;;;;;;;17.40;9.88;;;;;;;7.86;60.11;101509.88;4943333;28;20440;-80
2023/04/06 09:39:01;;;;;;;15.85;9.63;;;;;;;7.91;59.37;101513.34;4945509;28;20019;-80
2023/04/06 09:41:28;;;;;;;17.67;9.57;;;;;;;7.96;59.48;101506.41;4927638;28;20032;-80
2023/04/06 09:44:11;;;;;;;18.08;9.60;;;;;;;8.04;59.99;101504.63;4945180;28;20172;-80
2023/04/06 09:46:41;;;;;;;16.88;9.80;;;;;;;8.11;60.57;101504.63;4943110;28;20517;-80
2023/04/06 09:49:08;;;;;;;16.25;9.73;;;;;;;8.17;59.23;101505.44;4939845;28;20086;-79
2023/04/06 09:51:44;;;;;;;17.55;9.57;;;;;;;8.29;60.23;101504.53;4945950;28;20063;-79
2023/04/06 09:54:14;;;;;;;18.55;10.02;;;;;;;8.41;59.55;101502.72;4944269;28;20035;-79
2023/04/06 09:56:46;;;;;;;17.45;10.13;;;;;;;8.49;60.71;101503.56;4943451;28;20027;-79
2023/04/06 09:59:41;;;;;;;;;;;;;;;8.58;60.19;101506.09;4941113;28;20523;-81
2023/04/06 10:02:14;;;;;;;15.48;8.55;;;;;;;8.65;59.62;101502.59;4916556;28;20389;-80
2023/04/06 10:04:56;;;;;;;17.98;9.95;;;;;;;8.73;59.67;101509.44;4945737;28;21062;-81
2023/04/06 10:07:22;;;;;;;15.35;9.20;;;;;;;8.82;60.05;101504.22;4941153;28;20082;-79
2023/04/06 10:09:48;;;;;;;17.88;9.18;;;;;;;8.92;59.38;101505.84;4945731;28;20487;-80
2023/04/06 10:12:13;;;;;;;15.75;9.02;;;;;;;9.00;60.32;101502.34;4927274;28;20058;-80
2023/04/06 10:14:39;;;;;;;16.75;9.52;;;;;;;9.05;61.17;101508.38;4942976;28;20042;-80
2023/04/06 10:17:04;;;;;;;14.13;8.60;;;;;;;9.07;60.45;101509.19;4942675;28;20482;-80
2023/04/06 10:20:06;;;;;;;15.93;9.25;;;;;;;9.06;60.79;101510.94;4943419;28;20046;-76
2023/04/06 10:22:59;;;;;;;14.05;8.02;;;;;;;9.06;61.09;101510.94;4945182;28;20114;-79
2023/04/06 10:25:32;;;;;;;13.82;8.48;;;;;;;9.02;61.45;101506.63;4942924;28;20490;-80
2023/04/06 10:28:04;;;;;;;14.00;7.90;;;;;;;8.96;62.14;101517.94;4944728;28;20031;-80
2023/04/06 10:30:30;;;;;;;14.82;7.70;;;;;;;8.90;60.90;101511.94;4942471;28;20047;-80
2023/04/06 10:32:55;;;;;;;14.82;7.78;;;;;;;8.84;61.79;101515.44;4942932;28;20027;-81
2023/04/06 10:35:21;;;;;;;15.77;8.20;;;;;;;8.82;61.49;101519.78;4938981;28;20086;-80
2023/04/06 10:37:50;;;;;;;14.52;7.88;;;;;;;8.82;62.17;101519.78;4943467;28;20118;-80
2023/04/06 10:40:25;;;;;;;13.05;7.93;;;;;;;8.78;63.01;101518.06;4936854;28;20031;-80
2023/04/06 10:42:55;;;;;;;13.45;7.88;;;;;;;8.75;63.35;101520.69;4942233;28;20067;-79
2023/04/06 10:45:31;;;;;;;15.40;7.32;;;;;;;8.72;62.88;101516.38;4930652;28;20106;-80
2023/04/06 10:47:56;;;;;;;12.30;7.55;;;;;;;8.72;64.69;101523.28;4938441;28;20530;-79
2023/04/06 10:50:22;;;;;;;12.80;6.80;;;;;;;8.71;63.44;101527.63;4940542;28;20039;-80
2023/04/06 10:52:59;;;;;;;13.45;7.07;;;;;;;8.68;65.24;101521.63;4934265;28;20035;-80
2023/04/06 10:55:26;;;;;;;11.57;7.07;;;;;;;8.66;66.88;101519.00;4940825;28;20067;-81
2023/04/06 10:57:52;;;;;;;10.85;6.43;;;;;;;8.65;66.21;101518.16;4939313;28;20042;-80
2023/04/06 11:00:19;;;;;;;11.50;5.95;;;;;;;8.64;65.55;101516.44;4942557;28;20030;-79
2023/04/06 11:02:44;;;;;;;11.98;6.10;;;;;;;8.59;66.24;101518.19;4940657;28;20031;-80
2023/04/06 11:05:11;;;;;;;9.13;5.70;;;;;;;8.56;67.64;101519.97;4945240;28;20597;-80
2023/04/06 11:07:37;;;;;;;10.45;5.53;;;;;;;8.52;67.22;101508.75;4927742;28;20479;-80
2023/04/06 11:10:02;;;;;;;9.93;5.45;;;;;;;8.47;67.75;101513.06;4943490;28;20220;-80
2023/04/06 11:12:28;;;;;;;8.68;4.95;;;;;;;8.42;68.22;101510.50;4941129;28;20039;-81
2023/04/06 11:15:05;;;;;;;10.02;5.55;;;;;;;8.39;69.71;101504.44;4940442;28;20031;-79
2023/04/06 11:17:35;;;;;;;9.43;5.45;;;;;;;8.35;69.48;101506.22;4928854;28;20097;-80
2023/04/06 11:20:02;;;;;;;10.90;5.40;;;;;;;8.28;69.04;101501.94;4943211;28;20118;-81